sensor_id;sensor_type;location;lat;lon;timestamp;pressure;altitude;pressure_sealevel;temperature;humidity
60087;BME280;45960;53.630;55.972;2023-05-21T00:00:39;100813.28;;;10.33;60.38
60087;BME280;45960;53.630;55.972;2023-05-21T00:01:40;100835.03;;;10.43;60.52
60087;BME280;45960;53.630;55.972;2023-05-21T00:02:42;100816.75;;;10.35;60.49
60087;BME280;45960;53.630;55.972;2023-05-21T00:03:43;100831.56;;;10.41;60.62
60087;BME280;45960;53.630;55.972;2023-05-21T00:04:46;100831.56;;;10.41;60.63
60087;BME280;45960;53.630;55.972;2023-05-21T00:05:47;100828.13;;;10.39;60.65
60087;BME280;45960;53.630;55.972;2023-05-21T00:06:49;100838.81;;;10.39;60.74
60087;BME280;45960;53.630;55.972;2023-05-21T00:07:51;100829.16;;;10.36;60.71
60087;BME280;45960;53.630;55.972;2023-05-21T00:08:54;100831.91;;;10.35;60.46
60087;BME280;45960;53.630;55.972;2023-05-21T00:09:56;100838.13;;;10.35;60.78
60087;BME280;45960;53.630;55.972;2023-05-21T00:10:57;100833.72;;;10.34;60.66
60087;BME280;45960;53.630;55.972;2023-05-21T00:11:58;100827.78;;;10.29;60.77
60087;BME280;45960;53.630;55.972;2023-05-21T00:12:59;100834.66;;;10.33;60.78
60087;BME280;45960;53.630;55.972;2023-05-21T00:14:00;100836.75;;;10.28;60.90
60087;BME280;45960;53.630;55.972;2023-05-21T00:15:01;100837.50;;;10.30;60.86
60087;BME280;45960;53.630;55.972;2023-05-21T00:16:03;100843.81;;;10.29;60.76
60087;BME280;45960;53.630;55.972;2023-05-21T00:17:04;100836.75;;;10.28;60.70
60087;BME280;45960;53.630;55.972;2023-05-21T00:18:05;100840.34;;;10.27;60.96
60087;BME280;45960;53.630;55.972;2023-05-21T00:19:06;100840.50;;;10.24;60.91
60087;BME280;45960;53.630;55.972;2023-05-21T00:20:07;100843.94;;;10.26;60.93
60087;BME280;45960;53.630;55.972;2023-05-21T00:21:09;100844.88;;;10.25;60.81
60087;BME280;45960;53.630;55.972;2023-05-21T00:22:11;100845.03;;;10.22;60.88
60087;BME280;45960;53.630;55.972;2023-05-21T00:23:13;100843.09;;;10.25;61.10
60087;BME280;45960;53.630;55.972;2023-05-21T00:24:18;100845.75;;;10.25;61.21
60087;BME280;45960;53.630;55.972;2023-05-21T00:25:19;100833.78;;;10.17;61.06
60087;BME280;45960;53.630;55.972;2023-05-21T00:26:20;100844.44;;;10.17;61.08
60087;BME280;45960;53.630;55.972;2023-05-21T00:27:23;100837.38;;;10.16;61.09
60087;BME280;45960;53.630;55.972;2023-05-21T00:28:24;100853.06;;;10.22;61.17
60087;BME280;45960;53.630;55.972;2023-05-21T00:29:25;100854.63;;;10.26;61.29
60087;BME280;45960;53.630;55.972;2023-05-21T00:30:27;100843.31;;;10.21;61.50
60087;BME280;45960;53.630;55.972;2023-05-21T00:31:28;100846.00;;;10.21;61.20
60087;BME280;45960;53.630;55.972;2023-05-21T00:32:30;100858.97;;;10.28;61.24
60087;BME280;45960;53.630;55.972;2023-05-21T00:33:31;100854.63;;;10.26;61.22
60087;BME280;45960;53.630;55.972;2023-05-21T00:34:32;100863.28;;;10.31;61.34
60087;BME280;45960;53.630;55.972;2023-05-21T00:35:33;100861.38;;;10.33;61.40
60087;BME280;45960;53.630;55.972;2023-05-21T00:36:34;100859.66;;;10.32;61.10
60087;BME280;45960;53.630;55.972;2023-05-21T00:37:35;100855.16;;;10.33;60.92
60087;BME280;45960;53.630;55.972;2023-05-21T00:38:36;100861.38;;;10.33;61.24
60087;BME280;45960;53.630;55.972;2023-05-21T00:39:37;100863.28;;;10.31;61.05
60087;BME280;45960;53.630;55.972;2023-05-21T00:40:38;100866.53;;;10.36;61.17
60087;BME280;45960;53.630;55.972;2023-05-21T00:41:41;100872.66;;;10.38;61.19
60087;BME280;45960;53.630;55.972;2023-05-21T00:42:42;100871.75;;;10.39;61.08
60087;BME280;45960;53.630;55.972;2023-05-21T00:43:48;100867.31;;;10.38;61.15
60087;BME280;45960;53.630;55.972;2023-05-21T00:44:49;100866.53;;;10.36;60.98
60087;BME280;45960;53.630;55.972;2023-05-21T00:45:50;100862.78;;;10.40;61.00
60087;BME280;45960;53.630;55.972;2023-05-21T00:46:53;100874.25;;;10.42;60.94
60087;BME280;45960;53.630;55.972;2023-05-21T00:47:54;100875.00;;;10.44;61.07
60087;BME280;45960;53.630;55.972;2023-05-21T00:48:55;100877.66;;;10.44;60.81
60087;BME280;45960;53.630;55.972;2023-05-21T00:49:58;100873.09;;;10.46;60.94
60087;BME280;45960;53.630;55.972;2023-05-21T00:50:59;100869.66;;;10.44;61.05
60087;BME280;45960;53.630;55.972;2023-05-21T00:52:00;100878.28;;;10.49;60.88
60087;BME280;45960;53.630;55.972;2023-05-21T00:53:02;100881.75;;;10.51;60.71
60087;BME280;45960;53.630;55.972;2023-05-21T00:54:03;100876.41;;;10.51;60.60
60087;BME280;45960;53.630;55.972;2023-05-21T00:55:04;100879.84;;;10.53;60.85
60087;BME280;45960;53.630;55.972;2023-05-21T00:56:06;100872.59;;;10.56;60.55
60087;BME280;45960;53.630;55.972;2023-05-21T00:57:07;100876.06;;;10.58;60.63
60087;BME280;45960;53.630;55.972;2023-05-21T00:58:09;100869.84;;;10.57;60.68
60087;BME280;45960;53.630;55.972;2023-05-21T00:59:10;100878.53;;;10.61;60.68
60087;BME280;45960;53.630;55.972;2023-05-21T01:00:13;100874.00;;;10.63;60.59
60087;BME280;45960;53.630;55.972;2023-05-21T01:01:14;100885.47;;;10.65;60.66
60087;BME280;45960;53.630;55.972;2023-05-21T01:02:18;100886.31;;;10.65;60.73
60087;BME280;45960;53.630;55.972;2023-05-21T01:03:19;100878.19;;;10.67;60.79
60087;BME280;45960;53.630;55.972;2023-05-21T01:04:24;100880.72;;;10.70;60.68
60087;BME280;45960;53.630;55.972;2023-05-21T01:05:27;100887.78;;;10.71;60.87
60087;BME280;45960;53.630;55.972;2023-05-21T01:06:28;100867.59;;;10.65;60.86
60087;BME280;45960;53.630;55.972;2023-05-21T01:07:29;100881.31;;;10.75;60.66
60087;BME280;45960;53.630;55.972;2023-05-21T01:08:31;100890.88;;;10.79;60.79
60087;BME280;45960;53.630;55.972;2023-05-21T01:09:32;100879.41;;;10.77;60.88
60087;BME280;45960;53.630;55.972;2023-05-21T01:10:33;100880.19;;;10.79;60.70
60087;BME280;45960;53.630;55.972;2023-05-21T01:11:41;100890.34;;;10.88;60.67
60087;BME280;45960;53.630;55.972;2023-05-21T01:12:44;100886.72;;;10.89;60.48
60087;BME280;45960;53.630;55.972;2023-05-21T01:13:46;100885.69;;;10.92;60.25
60087;BME280;45960;53.630;55.972;2023-05-21T01:14:48;100886.47;;;10.94;60.06
60087;BME280;45960;53.630;55.972;2023-05-21T01:15:49;100888.13;;;10.96;60.14
60087;BME280;45960;53.630;55.972;2023-05-21T01:16:51;100889.81;;;10.97;59.81
60087;BME280;45960;53.630;55.972;2023-05-21T01:17:53;100891.41;;;11.02;59.67
60087;BME280;45960;53.630;55.972;2023-05-21T01:18:55;100882.59;;;11.00;59.83
60087;BME280;45960;53.630;55.972;2023-05-21T01:19:57;100887.56;;;11.06;59.71
60087;BME280;45960;53.630;55.972;2023-05-21T01:21:02;100851.41;;;10.84;59.53
60087;BME280;45960;53.630;55.972;2023-05-21T01:22:06;100888.28;;;11.09;59.35
60087;BME280;45960;53.630;55.972;2023-05-21T01:23:08;100893.47;;;11.12;59.42
60087;BME280;45960;53.630;55.972;2023-05-21T01:24:10;100892.41;;;11.15;59.58
60087;BME280;45960;53.630;55.972;2023-05-21T01:25:11;100887.06;;;11.15;59.31
60087;BME280;45960;53.630;55.972;2023-05-21T01:26:12;100888.97;;;11.13;59.71
60087;BME280;45960;53.630;55.972;2023-05-21T01:27:13;100875.59;;;11.13;59.45
60087;BME280;45960;53.630;55.972;2023-05-21T01:28:14;100862.75;;;11.04;59.36
60087;BME280;45960;53.630;55.972;2023-05-21T01:29:16;100896.84;;;11.30;59.22
60087;BME280;45960;53.630;55.972;2023-05-21T01:30:18;100853.59;;;11.08;59.17
60087;BME280;45960;53.630;55.972;2023-05-21T01:32:49;100892.38;;;11.31;58.86
60087;BME280;45960;53.630;55.972;2023-05-21T01:33:55;100890.22;;;11.37;59.00
60087;BME280;45960;53.630;55.972;2023-05-21T01:35:12;100897.88;;;11.43;58.86
60087;BME280;45960;53.630;55.972;2023-05-21T01:36:27;100895.97;;;11.46;58.84
60087;BME280;45960;53.630;55.972;2023-05-21T01:37:39;100893.19;;;11.47;58.76
60087;BME280;45960;53.630;55.972;2023-05-21T01:38:59;100895.59;;;11.52;58.59
60087;BME280;45960;53.630;55.972;2023-05-21T01:40:17;100899.91;;;11.54;58.18
60087;BME280;45960;53.630;55.972;2023-05-21T01:41:23;100895.59;;;11.52;58.24
60087;BME280;45960;53.630;55.972;2023-05-21T01:42:27;100893.34;;;11.60;58.24
60087;BME280;45960;53.630;55.972;2023-05-21T01:43:41;100905.38;;;11.67;57.87
60087;BME280;45960;53.630;55.972;2023-05-21T01:44:43;100890.19;;;11.68;57.88
60087;BME280;45960;53.630;55.972;2023-05-21T01:45:46;100895.84;;;11.77;57.73
60087;BME280;45960;53.630;55.972;2023-05-21T01:46:48;100890.31;;;11.80;57.68
60087;BME280;45960;53.630;55.972;2023-05-21T01:47:53;100884.97;;;11.80;57.62
60087;BME280;45960;53.630;55.972;2023-05-21T01:48:55;100877.59;;;11.84;57.40
60087;BME280;45960;53.630;55.972;2023-05-21T01:49:58;100901.00;;;11.96;57.14
60087;BME280;45960;53.630;55.972;2023-05-21T01:51:03;100896.31;;;12.00;57.04
60087;BME280;45960;53.630;55.972;2023-05-21T01:52:05;100897.81;;;12.04;56.87
60087;BME280;45960;53.630;55.972;2023-05-21T01:53:06;100880.25;;;12.00;56.69
60087;BME280;45960;53.630;55.972;2023-05-21T01:54:07;100899.19;;;12.11;56.73
60087;BME280;45960;53.630;55.972;2023-05-21T01:55:09;100887.13;;;12.04;56.65
60087;BME280;45960;53.630;55.972;2023-05-21T01:56:10;100887.50;;;12.12;56.73
60087;BME280;45960;53.630;55.972;2023-05-21T01:57:11;100897.47;;;12.24;56.49
60087;BME280;45960;53.630;55.972;2023-05-21T01:58:12;100903.28;;;12.31;56.60
60087;BME280;45960;53.630;55.972;2023-05-21T01:59:16;100903.88;;;12.36;56.54
60087;BME280;45960;53.630;55.972;2023-05-21T02:00:22;100902.63;;;12.42;56.39
60087;BME280;45960;53.630;55.972;2023-05-21T02:01:24;100906.81;;;12.46;56.22
60087;BME280;45960;53.630;55.972;2023-05-21T02:02:26;100902.25;;;12.48;56.08
60087;BME280;45960;53.630;55.972;2023-05-21T02:03:27;100907.13;;;12.56;55.99
60087;BME280;45960;53.630;55.972;2023-05-21T02:04:30;100903.19;;;12.61;55.60
60087;BME280;45960;53.630;55.972;2023-05-21T02:05:31;100904.69;;;12.65;55.68
60087;BME280;45960;53.630;55.972;2023-05-21T02:06:32;100897.63;;;12.64;55.55
60087;BME280;45960;53.630;55.972;2023-05-21T02:07:35;100906.03;;;12.72;55.73
60087;BME280;45960;53.630;55.972;2023-05-21T02:08:37;100909.09;;;12.81;55.72
60087;BME280;45960;53.630;55.972;2023-05-21T02:09:39;100894.91;;;12.79;55.29
60087;BME280;45960;53.630;55.972;2023-05-21T02:10:40;100906.78;;;12.89;55.42
60087;BME280;45960;53.630;55.972;2023-05-21T02:11:41;100903.91;;;12.92;55.06
60087;BME280;45960;53.630;55.972;2023-05-21T02:12:42;100902.50;;;12.99;54.72
60087;BME280;45960;53.630;55.972;2023-05-21T02:13:43;100907.69;;;13.02;54.68
60087;BME280;45960;53.630;55.972;2023-05-21T02:14:46;100904.63;;;13.08;54.32
60087;BME280;45960;53.630;55.972;2023-05-21T02:15:50;100912.25;;;13.14;54.17
60087;BME280;45960;53.630;55.972;2023-05-21T02:16:55;100904.09;;;13.16;53.80
60087;BME280;45960;53.630;55.972;2023-05-21T02:17:56;100893.34;;;13.16;53.39
60087;BME280;45960;53.630;55.972;2023-05-21T02:18:58;100908.56;;;13.30;53.16
60087;BME280;45960;53.630;55.972;2023-05-21T02:20:00;100910.84;;;13.36;52.58
60087;BME280;45960;53.630;55.972;2023-05-21T02:21:19;100910.66;;;13.39;52.36
60087;BME280;45960;53.630;55.972;2023-05-21T02:22:20;100909.28;;;13.46;52.11
60087;BME280;45960;53.630;55.972;2023-05-21T02:23:21;100918.66;;;13.53;51.69
60087;BME280;45960;53.630;55.972;2023-05-21T02:24:22;100915.63;;;13.58;51.26
60087;BME280;45960;53.630;55.972;2023-05-21T02:25:24;100907.50;;;13.59;51.50
60087;BME280;45960;53.630;55.972;2023-05-21T02:26:25;100914.81;;;13.70;50.84
60087;BME280;45960;53.630;55.972;2023-05-21T02:27:27;100916.31;;;13.74;50.78
60087;BME280;45960;53.630;55.972;2023-05-21T02:28:31;100903.00;;;13.73;50.54
60087;BME280;45960;53.630;55.972;2023-05-21T02:29:33;100927.09;;;13.87;50.70
60087;BME280;45960;53.630;55.972;2023-05-21T02:30:34;100916.34;;;13.87;50.56
60087;BME280;45960;53.630;55.972;2023-05-21T02:31:35;100917.41;;;13.97;49.93
60087;BME280;45960;53.630;55.972;2023-05-21T02:32:36;100923.34;;;14.02;49.68
60087;BME280;45960;53.630;55.972;2023-05-21T02:33:41;100907.97;;;14.04;49.36
60087;BME280;45960;53.630;55.972;2023-05-21T02:34:42;100907.97;;;14.04;49.33
60087;BME280;45960;53.630;55.972;2023-05-21T02:35:45;100926.66;;;14.19;49.34
60087;BME280;45960;53.630;55.972;2023-05-21T02:36:47;100926.25;;;14.25;48.96
60087;BME280;45960;53.630;55.972;2023-05-21T02:37:51;100920.63;;;14.28;48.65
60087;BME280;45960;53.630;55.972;2023-05-21T02:38:53;100926.56;;;14.33;48.71
60087;BME280;45960;53.630;55.972;2023-05-21T02:39:55;100926.13;;;14.39;48.51
60087;BME280;45960;53.630;55.972;2023-05-21T02:40:56;100928.50;;;14.44;48.47
60087;BME280;45960;53.630;55.972;2023-05-21T02:41:57;100887.44;;;14.29;48.18
60087;BME280;45960;53.630;55.972;2023-05-21T02:42:59;100918.28;;;14.49;48.26
60087;BME280;45960;53.630;55.972;2023-05-21T02:44:00;100929.25;;;14.59;47.93
60087;BME280;45960;53.630;55.972;2023-05-21T02:45:01;100911.41;;;14.58;47.86
60087;BME280;45960;53.630;55.972;2023-05-21T02:46:06;100930.31;;;14.69;47.97
60087;BME280;45960;53.630;55.972;2023-05-21T02:47:07;100931.81;;;14.73;47.65
60087;BME280;45960;53.630;55.972;2023-05-21T02:48:10;100910.72;;;14.67;47.45
60087;BME280;45960;53.630;55.972;2023-05-21T02:49:14;100927.47;;;14.83;47.23
60087;BME280;45960;53.630;55.972;2023-05-21T02:50:17;100934.38;;;14.87;47.40
60087;BME280;45960;53.630;55.972;2023-05-21T02:51:24;100932.19;;;14.92;47.24
60087;BME280;45960;53.630;55.972;2023-05-21T02:52:25;100928.31;;;14.96;46.93
60087;BME280;45960;53.630;55.972;2023-05-21T02:53:26;100929.78;;;15.00;46.64
60087;BME280;45960;53.630;55.972;2023-05-21T02:54:27;100936.47;;;15.08;46.54
60087;BME280;45960;53.630;55.972;2023-05-21T02:55:29;100929.13;;;15.10;46.21
60087;BME280;45960;53.630;55.972;2023-05-21T02:56:30;100929.53;;;15.16;46.02
60087;BME280;45960;53.630;55.972;2023-05-21T02:57:30;100931.91;;;15.21;45.72
60087;BME280;45960;53.630;55.972;2023-05-21T02:58:32;100934.88;;;15.29;45.46
60087;BME280;45960;53.630;55.972;2023-05-21T02:59:33;100921.63;;;15.26;45.43
60087;BME280;45960;53.630;55.972;2023-05-21T03:00:34;100934.03;;;15.40;45.26
60087;BME280;45960;53.630;55.972;2023-05-21T03:01:35;100933.72;;;15.44;44.91
60087;BME280;45960;53.630;55.972;2023-05-21T03:02:36;100939.63;;;15.50;44.46
60087;BME280;45960;53.630;55.972;2023-05-21T03:03:38;100931.53;;;15.50;44.04
60087;BME280;45960;53.630;55.972;2023-05-21T03:04:39;100923.97;;;15.55;44.16
60087;BME280;45960;53.630;55.972;2023-05-21T03:05:46;100933.19;;;15.63;44.02
60087;BME280;45960;53.630;55.972;2023-05-21T03:06:48;100937.28;;;15.69;43.73
60087;BME280;45960;53.630;55.972;2023-05-21T03:07:54;100931.66;;;15.72;43.59
60087;BME280;45960;53.630;55.972;2023-05-21T03:08:56;100933.13;;;15.76;43.71
60087;BME280;45960;53.630;55.972;2023-05-21T03:09:57;100936.94;;;15.85;43.87
60087;BME280;45960;53.630;55.972;2023-05-21T03:10:58;100903.00;;;15.71;43.71
60087;BME280;45960;53.630;55.972;2023-05-21T03:11:59;100924.84;;;15.91;43.26
60087;BME280;45960;53.630;55.972;2023-05-21T03:13:01;100935.88;;;15.99;43.28
60087;BME280;45960;53.630;55.972;2023-05-21T03:14:04;100929.53;;;16.00;42.86
60087;BME280;45960;53.630;55.972;2023-05-21T03:15:06;100943.03;;;16.11;42.88
60087;BME280;45960;53.630;55.972;2023-05-21T03:16:08;100933.94;;;16.12;42.82
60087;BME280;45960;53.630;55.972;2023-05-21T03:17:09;100944.00;;;16.21;42.31
60087;BME280;45960;53.630;55.972;2023-05-21T03:18:13;100931.28;;;16.23;42.12
60087;BME280;45960;53.630;55.972;2023-05-21T03:19:14;100922.19;;;16.24;41.88
60087;BME280;45960;53.630;55.972;2023-05-21T03:20:15;100939.38;;;16.34;42.05
60087;BME280;45960;53.630;55.972;2023-05-21T03:21:19;100941.59;;;16.41;41.97
60087;BME280;45960;53.630;55.972;2023-05-21T03:22:22;100938.63;;;16.44;41.92
60087;BME280;45960;53.630;55.972;2023-05-21T03:23:23;100939.88;;;16.51;41.30
60087;BME280;45960;53.630;55.972;2023-05-21T03:24:24;100938.78;;;16.53;41.06
60087;BME280;45960;53.630;55.972;2023-05-21T03:25:26;100940.88;;;16.61;40.79
60087;BME280;45960;53.630;55.972;2023-05-21T03:26:28;100940.38;;;16.67;40.79
60087;BME280;45960;53.630;55.972;2023-05-21T03:27:30;100939.88;;;16.73;40.73
60087;BME280;45960;53.630;55.972;2023-05-21T03:28:32;100934.00;;;16.80;40.46
60087;BME280;45960;53.630;55.972;2023-05-21T03:29:34;100934.00;;;16.80;39.91
60087;BME280;45960;53.630;55.972;2023-05-21T03:30:36;100946.63;;;16.90;39.88
60087;BME280;45960;53.630;55.972;2023-05-21T03:32:10;100944.78;;;16.91;40.14
60087;BME280;45960;53.630;55.972;2023-05-21T03:33:12;100942.31;;;16.99;40.18
60087;BME280;45960;53.630;55.972;2023-05-21T03:34:15;100905.06;;;16.82;39.54
60087;BME280;45960;53.630;55.972;2023-05-21T03:35:16;100944.03;;;17.11;39.33
60087;BME280;45960;53.630;55.972;2023-05-21T03:36:17;100924.41;;;17.09;39.50
60087;BME280;45960;53.630;55.972;2023-05-21T03:37:18;100925.84;;;17.13;39.66
60087;BME280;45960;53.630;55.972;2023-05-21T03:38:19;100939.06;;;17.28;39.61
60087;BME280;45960;53.630;55.972;2023-05-21T03:39:20;100939.53;;;17.33;39.40
60087;BME280;45960;53.630;55.972;2023-05-21T03:40:22;100943.72;;;17.37;39.35
60087;BME280;45960;53.630;55.972;2023-05-21T03:41:23;100937.81;;;17.43;39.08
60087;BME280;45960;53.630;55.972;2023-05-21T03:42:30;100922.81;;;17.39;39.12
60087;BME280;45960;53.630;55.972;2023-05-21T03:43:31;100946.88;;;17.53;39.25
60087;BME280;45960;53.630;55.972;2023-05-21T03:44:33;100926.47;;;17.49;39.19
60087;BME280;45960;53.630;55.972;2023-05-21T03:45:46;100945.81;;;17.65;39.01
60087;BME280;45960;53.630;55.972;2023-05-21T03:47:07;100948.84;;;17.72;39.17
60087;BME280;45960;53.630;55.972;2023-05-21T03:48:10;100950.94;;;17.80;38.75
60087;BME280;45960;53.630;55.972;2023-05-21T03:49:12;100946.97;;;17.84;38.26
60087;BME280;45960;53.630;55.972;2023-05-21T03:50:15;100956.16;;;17.93;38.20
60087;BME280;45960;53.630;55.972;2023-05-21T03:51:16;100957.50;;;17.98;38.05
60087;BME280;45960;53.630;55.972;2023-05-21T03:52:18;100944.56;;;18.02;37.53
60087;BME280;45960;53.630;55.972;2023-05-21T03:53:20;100952.03;;;18.09;37.59
60087;BME280;45960;53.630;55.972;2023-05-21T03:54:21;100954.44;;;18.13;37.71
60087;BME280;45960;53.630;55.972;2023-05-21T03:55:24;100955.63;;;18.20;37.59
60087;BME280;45960;53.630;55.972;2023-05-21T03:56:25;100965.50;;;18.30;37.26
60087;BME280;45960;53.630;55.972;2023-05-21T03:57:26;100965.13;;;18.35;37.40
60087;BME280;45960;53.630;55.972;2023-05-21T03:58:29;100928.13;;;18.15;37.06
60087;BME280;45960;53.630;55.972;2023-05-21T03:59:30;100968.44;;;18.48;36.28
60087;BME280;45960;53.630;55.972;2023-05-21T04:00:32;100956.50;;;18.51;36.04
60087;BME280;45960;53.630;55.972;2023-05-21T04:01:34;100964.22;;;18.55;36.36
60087;BME280;45960;53.630;55.972;2023-05-21T04:02:36;100951.69;;;18.54;36.46
60087;BME280;45960;53.630;55.972;2023-05-21T04:03:38;100966.56;;;18.70;36.15
60087;BME280;45960;53.630;55.972;2023-05-21T04:04:40;100976.59;;;18.79;35.41
60087;BME280;45960;53.630;55.972;2023-05-21T04:05:41;100967.50;;;18.80;35.65
60087;BME280;45960;53.630;55.972;2023-05-21T04:06:42;100965.81;;;18.89;35.92
60087;BME280;45960;53.630;55.972;2023-05-21T04:07:44;100967.84;;;18.96;35.98
60087;BME280;45960;53.630;55.972;2023-05-21T04:08:46;100902.44;;;18.61;35.39
60087;BME280;45960;53.630;55.972;2023-05-21T04:09:48;100973.00;;;19.09;34.91
60087;BME280;45960;53.630;55.972;2023-05-21T04:10:49;100973.31;;;19.16;35.20
60087;BME280;45960;53.630;55.972;2023-05-21T04:11:50;100972.16;;;19.18;35.44
60087;BME280;45960;53.630;55.972;2023-05-21T04:12:52;100980.47;;;19.27;35.68
60087;BME280;45960;53.630;55.972;2023-05-21T04:13:53;100954.53;;;19.24;35.32
60087;BME280;45960;53.630;55.972;2023-05-21T04:14:54;100964.53;;;19.33;34.89
60087;BME280;45960;53.630;55.972;2023-05-21T04:15:55;100980.38;;;19.48;35.05
60087;BME280;45960;53.630;55.972;2023-05-21T04:16:57;100979.78;;;19.54;35.26
60087;BME280;45960;53.630;55.972;2023-05-21T04:17:58;100980.97;;;19.61;35.55
60087;BME280;45960;53.630;55.972;2023-05-21T04:19:00;100984.84;;;19.68;35.32
60087;BME280;45960;53.630;55.972;2023-05-21T04:20:02;100948.56;;;19.50;34.95
60087;BME280;45960;53.630;55.972;2023-05-21T04:21:04;100975.28;;;19.74;34.89
60087;BME280;45960;53.630;55.972;2023-05-21T04:22:06;100982.56;;;19.83;35.18
60087;BME280;45960;53.630;55.972;2023-05-21T04:23:07;100986.56;;;19.88;34.90
60087;BME280;45960;53.630;55.972;2023-05-21T04:24:09;100983.13;;;19.96;35.08
60087;BME280;45960;53.630;55.972;2023-05-21T04:25:21;100974.56;;;20.01;34.54
60087;BME280;45960;53.630;55.972;2023-05-21T04:26:23;100981.09;;;20.08;34.81
60087;BME280;45960;53.630;55.972;2023-05-21T04:27:25;100982.25;;;20.15;34.92
60087;BME280;45960;53.630;55.972;2023-05-21T04:28:27;100986.09;;;20.22;34.80
60087;BME280;45960;53.630;55.972;2023-05-21T04:29:29;100984.78;;;20.26;34.69
60087;BME280;45960;53.630;55.972;2023-05-21T04:30:31;100982.22;;;20.34;34.50
60087;BME280;45960;53.630;55.972;2023-05-21T04:31:36;100985.34;;;20.40;34.17
60087;BME280;45960;53.630;55.972;2023-05-21T04:32:38;100981.03;;;20.47;34.21
60087;BME280;45960;53.630;55.972;2023-05-21T04:33:41;100960.91;;;20.40;33.92
60087;BME280;45960;53.630;55.972;2023-05-21T04:34:46;100969.31;;;20.46;33.96
60087;BME280;45960;53.630;55.972;2023-05-21T04:35:49;100976.88;;;20.62;34.15
60087;BME280;45960;53.630;55.972;2023-05-21T04:36:50;100977.28;;;20.67;34.50
60087;BME280;45960;53.630;55.972;2023-05-21T04:37:51;100966.44;;;20.67;34.59
60087;BME280;45960;53.630;55.972;2023-05-21T04:38:55;100967.22;;;20.77;34.77
60087;BME280;45960;53.630;55.972;2023-05-21T04:39:58;100957.50;;;20.85;34.74
60087;BME280;45960;53.630;55.972;2023-05-21T04:41:01;100976.00;;;20.99;34.51
60087;BME280;45960;53.630;55.972;2023-05-21T04:42:03;100967.09;;;21.07;34.37
60087;BME280;45960;53.630;55.972;2023-05-21T04:43:05;100970.78;;;21.15;34.41
60087;BME280;45960;53.630;55.972;2023-05-21T04:44:06;100973.59;;;21.23;34.03
60087;BME280;45960;53.630;55.972;2023-05-21T04:45:09;100976.72;;;21.29;34.06
60087;BME280;45960;53.630;55.972;2023-05-21T04:46:12;100943.84;;;21.22;34.45
60087;BME280;45960;53.630;55.972;2023-05-21T04:47:13;100975.91;;;21.46;34.47
60087;BME280;45960;53.630;55.972;2023-05-21T04:48:14;100972.56;;;21.52;34.52
60087;BME280;45960;53.630;55.972;2023-05-21T04:49:16;100972.47;;;21.62;34.52
60087;BME280;45960;53.630;55.972;2023-05-21T04:50:17;100962.47;;;21.62;34.41
60087;BME280;45960;53.630;55.972;2023-05-21T04:51:23;100972.09;;;21.75;34.14
60087;BME280;45960;53.630;55.972;2023-05-21T04:52:26;100961.59;;;21.80;33.95
60087;BME280;45960;53.630;55.972;2023-05-21T04:53:27;100967.13;;;21.88;33.58
60087;BME280;45960;53.630;55.972;2023-05-21T04:54:30;100964.47;;;21.96;33.35
60087;BME280;45960;53.630;55.972;2023-05-21T04:55:31;100967.94;;;22.06;33.67
60087;BME280;45960;53.630;55.972;2023-05-21T04:56:32;100962.56;;;22.15;33.61
60087;BME280;45960;53.630;55.972;2023-05-21T04:57:35;100965.38;;;22.23;33.46
60087;BME280;45960;53.630;55.972;2023-05-21T04:58:36;100959.28;;;22.29;33.71
60087;BME280;45960;53.630;55.972;2023-05-21T04:59:40;100972.94;;;22.37;33.55
60087;BME280;45960;53.630;55.972;2023-05-21T05:00:43;100947.47;;;22.38;33.91
60087;BME280;45960;53.630;55.972;2023-05-21T05:01:50;100963.34;;;22.51;33.98
60087;BME280;45960;53.630;55.972;2023-05-21T05:02:51;100961.19;;;22.63;33.66
60087;BME280;45960;53.630;55.972;2023-05-21T05:03:53;100961.41;;;22.69;33.55
60087;BME280;45960;53.630;55.972;2023-05-21T05:04:54;100964.19;;;22.77;33.34
60087;BME280;45960;53.630;55.972;2023-05-21T05:05:55;100959.78;;;22.85;33.29
60087;BME280;45960;53.630;55.972;2023-05-21T05:06:57;100953.66;;;22.91;33.33
60087;BME280;45960;53.630;55.972;2023-05-21T05:07:58;100958.34;;;22.98;32.88
60087;BME280;45960;53.630;55.972;2023-05-21T05:09:00;100958.38;;;23.07;32.59
60087;BME280;45960;53.630;55.972;2023-05-21T05:10:02;100953.28;;;23.12;32.92
60087;BME280;45960;53.630;55.972;2023-05-21T05:11:05;100956.72;;;23.22;32.89
60087;BME280;45960;53.630;55.972;2023-05-21T05:12:07;100958.09;;;23.26;33.05
60087;BME280;45960;53.630;55.972;2023-05-21T05:13:08;100955.38;;;23.34;32.88
60087;BME280;45960;53.630;55.972;2023-05-21T05:14:09;100954.38;;;23.43;32.40
60087;BME280;45960;53.630;55.972;2023-05-21T05:15:10;100961.72;;;23.51;32.31
60087;BME280;45960;53.630;55.972;2023-05-21T05:16:12;100966.34;;;23.59;32.58
60087;BME280;45960;53.630;55.972;2023-05-21T05:17:15;100963.63;;;23.67;32.37
60087;BME280;45960;53.630;55.972;2023-05-21T05:18:17;100954.78;;;23.73;32.34
60087;BME280;45960;53.630;55.972;2023-05-21T05:19:19;100961.25;;;23.80;31.79
60087;BME280;45960;53.630;55.972;2023-05-21T05:20:20;100955.47;;;23.83;31.67
60087;BME280;45960;53.630;55.972;2023-05-21T05:21:24;100958.72;;;23.95;31.39
60087;BME280;45960;53.630;55.972;2023-05-21T05:22:25;100960.59;;;24.03;31.65
60087;BME280;45960;53.630;55.972;2023-05-21T05:23:27;100958.19;;;24.08;31.18
60087;BME280;45960;53.630;55.972;2023-05-21T05:24:29;100947.81;;;24.11;31.38